Time;durP1;ratioP1;P1;durP2;ratioP2;P2;SDS_P1;SDS_P2;PMS_P1;PMS_P2;Temp;Humidity;BMP_temperature;BMP_pressure;BME280_temperature;BME280_humidity;BME280_pressure;Samples;Min_cycle;Max_cycle;Signal;HPM_P1;HPM_P2
2022/03/10 00:02:22;;;;;;;9.38;5.63;;;10.20;98.90;;;;;;4953201;29;20071;-67
2022/03/10 00:04:49;;;;;;;10.85;5.70;;;10.10;98.80;;;;;;4953854;29;20106;-67
2022/03/10 00:07:16;;;;;;;10.23;6.50;;;10.10;98.60;;;;;;4954348;29;20700;-67
2022/03/10 00:09:43;;;;;;;9.43;5.80;;;10.10;98.70;;;;;;4954852;29;20070;-67
2022/03/10 00:12:10;;;;;;;9.82;5.97;;;10.10;98.70;;;;;;4936477;29;20053;-67
2022/03/10 00:14:40;;;;;;;;;;;10.10;98.60;;;;;;4936897;29;20146;-66
2022/03/10 00:17:07;;;;;;;8.73;5.65;;;10.10;98.60;;;;;;4954673;29;19929;-67
2022/03/10 00:19:34;;;;;;;12.23;5.95;;;10.10;98.70;;;;;;4953620;29;20057;-66
2022/03/10 00:22:01;;;;;;;9.00;5.60;;;10.10;98.60;;;;;;4952761;29;20055;-67
2022/03/10 00:24:30;;;;;;;11.60;5.57;;;10.10;98.60;;;;;;4953272;28;20047;-67
2022/03/10 00:26:57;;;;;;;9.80;6.03;;;10.10;98.60;;;;;;4940994;29;20055;-67
2022/03/10 00:29:24;;;;;;;10.02;6.00;;;10.00;98.60;;;;;;4952575;28;20053;-67
2022/03/10 00:31:51;;;;;;;13.75;6.63;;;10.00;98.60;;;;;;4933378;29;20503;-67
2022/03/10 00:34:18;;;;;;;10.80;6.65;;;10.00;98.80;;;;;;4933445;29;20529;-66
2022/03/10 00:36:46;;;;;;;13.27;6.60;;;10.00;98.90;;;;;;4952835;29;20106;-66
2022/03/10 00:39:13;;;;;;;14.77;6.70;;;9.90;99.10;;;;;;4921660;29;20139;-66
2022/03/10 00:41:40;;;;;;;11.13;7.10;;;9.90;99.30;;;;;;4947328;29;20410;-67
2022/03/10 00:44:08;;;;;;;9.50;6.35;;;9.90;99.50;;;;;;4953206;29;20508;-67
2022/03/10 00:46:35;;;;;;;15.57;6.75;;;9.90;99.50;;;;;;4933794;29;20492;-66
2022/03/10 00:49:02;;;;;;;10.55;6.15;;;9.90;99.70;;;;;;4950578;29;20051;-66
2022/03/10 00:51:29;;;;;;;8.80;6.45;;;9.90;99.60;;;;;;4953260;29;20074;-66
2022/03/10 00:53:56;;;;;;;8.90;6.30;;;9.90;99.60;;;;;;4935912;29;20054;-67
2022/03/10 00:56:23;;;;;;;10.48;6.55;;;9.90;99.60;;;;;;4952502;28;20146;-67
2022/03/10 00:58:50;;;;;;;11.52;6.45;;;9.90;99.60;;;;;;4952096;28;20106;-67
2022/03/10 01:01:17;;;;;;;10.93;6.75;;;9.90;99.60;;;;;;4953061;29;20130;-67
2022/03/10 01:03:44;;;;;;;14.10;7.80;;;9.90;99.80;;;;;;4952578;29;20071;-66
2022/03/10 01:06:11;;;;;;;11.18;6.97;;;9.90;99.80;;;;;;4952691;28;20047;-66
2022/03/10 01:08:38;;;;;;;12.98;7.55;;;9.90;99.90;;;;;;4951983;29;20158;-68
2022/03/10 01:11:05;;;;;;;11.23;6.85;;;9.80;99.90;;;;;;4924524;29;20054;-66
2022/03/10 01:13:32;;;;;;;14.23;8.65;;;9.80;99.90;;;;;;4952099;29;20050;-67
2022/03/10 01:15:59;;;;;;;11.15;7.80;;;9.70;99.90;;;;;;4920481;29;20051;-67
2022/03/10 01:18:26;;;;;;;12.20;8.57;;;9.80;99.90;;;;;;4951603;29;20046;-66
2022/03/10 01:20:54;;;;;;;11.70;8.70;;;9.70;99.90;;;;;;4951735;29;20051;-66
2022/03/10 01:23:21;;;;;;;14.23;8.35;;;9.70;99.90;;;;;;4935515;28;20495;-67
2022/03/10 01:25:49;;;;;;;16.88;10.00;;;9.70;99.90;;;;;;4953033;29;20058;-67
2022/03/10 01:28:16;;;;;;;13.55;9.23;;;9.70;99.90;;;;;;4952741;29;20043;-67
2022/03/10 01:30:43;;;;;;;13.40;8.82;;;9.70;99.90;;;;;;4936568;29;20110;-67
2022/03/10 01:33:11;;;;;;;14.55;9.43;;;9.70;99.90;;;;;;4929193;29;20052;-67
2022/03/10 01:35:38;;;;;;;13.98;9.38;;;9.60;99.90;;;;;;4938996;29;20055;-66
2022/03/10 01:38:08;;;;;;;17.52;10.68;;;9.60;99.90;;;;;;4953137;29;20053;-67
2022/03/10 01:40:35;;;;;;;17.60;9.88;;;9.60;99.90;;;;;;4953318;28;20058;-67
2022/03/10 01:43:02;;;;;;;21.48;10.30;;;9.60;99.90;;;;;;4952660;29;20055;-67
2022/03/10 01:45:30;;;;;;;13.25;9.50;;;9.60;99.90;;;;;;4952639;28;20047;-67
2022/03/10 01:47:57;;;;;;;13.98;10.00;;;9.60;99.90;;;;;;4956410;29;20710;-66
2022/03/10 01:50:24;;;;;;;14.82;11.05;;;9.50;99.90;;;;;;4957358;28;20114;-67
2022/03/10 01:52:51;;;;;;;16.48;9.73;;;9.50;99.90;;;;;;4956890;28;20043;-66
2022/03/10 01:55:19;;;;;;;13.63;10.07;;;9.50;99.90;;;;;;4958139;28;20074;-67
2022/03/10 01:57:46;;;;;;;13.68;9.10;;;9.50;99.90;;;;;;4953451;29;20157;-67
2022/03/10 02:00:13;;;;;;;17.27;12.48;;;9.50;99.90;;;;;;4956115;28;20074;-66
2022/03/10 02:02:41;;;;;;;14.07;10.23;;;9.40;99.90;;;;;;4923969;29;20073;-67
2022/03/10 02:05:08;;;;;;;14.70;9.80;;;9.50;99.90;;;;;;4956478;28;20051;-67
2022/03/10 02:10:27;;;;;;;14.02;10.55;;;9.40;99.90;;;;;;4947946;29;20057;-67
2022/03/10 02:12:55;;;;;;;16.60;11.73;;;9.30;99.90;;;;;;4954107;29;20052;-67
2022/03/10 02:18:09;;;;;;;15.65;10.68;;;9.30;99.90;;;;;;4954975;29;20105;-66
2022/03/10 02:20:37;;;;;;;14.82;9.57;;;9.20;99.90;;;;;;4939350;29;20101;-67
2022/03/10 02:23:06;;;;;;;13.57;10.48;;;9.20;99.90;;;;;;4924649;29;20155;-66
2022/03/10 02:25:34;;;;;;;14.82;9.57;;;9.20;99.90;;;;;;4938595;28;20483;-66
2022/03/10 02:28:01;;;;;;;14.20;10.18;;;9.20;99.90;;;;;;4939096;29;20122;-67
2022/03/10 02:30:30;;;;;;;17.88;11.73;;;9.20;99.90;;;;;;4954504;28;20047;-67
2022/03/10 02:32:58;;;;;;;14.68;10.40;;;9.20;99.90;;;;;;4955510;28;20047;-67
2022/03/10 02:35:25;;;;;;;23.23;10.27;;;9.20;99.90;;;;;;4955679;28;20517;-66
2022/03/10 02:37:52;;;;;;;17.30;12.38;;;9.10;99.90;;;;;;4954984;29;20058;-67
2022/03/10 02:40:22;;;;;;;;;;;9.10;99.90;;;;;;4956677;28;20043;-66
2022/03/10 02:42:49;;;;;;;16.63;11.57;;;9.10;99.90;;;;;;4925721;29;19926;-68
2022/03/10 02:45:16;;;;;;;296.08;237.50;;;9.10;99.90;;;;;;4943902;29;20057;-67
2022/03/10 02:47:43;;;;;;;40.38;27.75;;;9.10;99.90;;;;;;4941961;29;20411;-67
2022/03/10 02:50:10;;;;;;;24.20;17.10;;;9.10;99.90;;;;;;4955494;28;20055;-67
2022/03/10 02:52:37;;;;;;;21.02;13.30;;;9.10;99.90;;;;;;4955170;28;20077;-68
2022/03/10 02:55:05;;;;;;;19.58;13.73;;;9.10;99.90;;;;;;4922895;29;20122;-68
2022/03/10 02:57:32;;;;;;;18.20;13.30;;;9.10;99.90;;;;;;4953660;28;20051;-66
2022/03/10 03:00:01;;;;;;;18.38;12.50;;;9.00;99.90;;;;;;4954620;28;20499;-67
2022/03/10 03:02:28;;;;;;;21.15;12.48;;;9.00;99.90;;;;;;4938347;29;20130;-67
2022/03/10 03:04:58;;;;;;;16.02;12.00;;;9.00;99.90;;;;;;4935606;29;20047;-66
2022/03/10 03:07:25;;;;;;;16.10;12.05;;;9.00;99.90;;;;;;4953951;29;20051;-67
2022/03/10 03:09:51;;;;;;;17.75;13.15;;;8.90;99.90;;;;;;4954122;29;20090;-66
2022/03/10 03:12:19;;;;;;;21.92;15.35;;;8.90;99.90;;;;;;4954851;28;20043;-68
2022/03/10 03:14:46;;;;;;;21.17;12.43;;;8.90;99.90;;;;;;4949933;29;20043;-67
2022/03/10 03:17:13;;;;;;;21.58;12.80;;;8.90;99.90;;;;;;4955173;28;20507;-66
2022/03/10 03:19:40;;;;;;;17.52;13.43;;;8.90;99.90;;;;;;4937902;29;20051;-66
2022/03/10 03:22:07;;;;;;;21.23;13.23;;;8.80;99.90;;;;;;4953773;29;20057;-67
2022/03/10 03:24:34;;;;;;;17.65;13.05;;;8.80;99.90;;;;;;4953610;28;20541;-66
2022/03/10 03:27:02;;;;;;;17.55;12.88;;;8.80;99.90;;;;;;4961770;28;20053;-67
2022/03/10 03:29:29;;;;;;;21.17;13.25;;;8.80;99.90;;;;;;4938092;29;20061;-67
2022/03/10 03:31:56;;;;;;;21.50;14.68;;;8.80;99.90;;;;;;4953470;29;20046;-66
2022/03/10 03:34:23;;;;;;;22.30;13.77;;;8.80;99.90;;;;;;4953474;29;20039;-67
2022/03/10 03:36:53;;;;;;;17.83;12.77;;;8.80;99.90;;;;;;4953523;29;20051;-67
2022/03/10 03:39:20;;;;;;;;;;;8.70;99.90;;;;;;4936238;29;20057;-67
2022/03/10 03:41:47;;;;;;;18.08;12.77;;;8.70;99.90;;;;;;4925475;29;20021;-67
2022/03/10 03:44:14;;;;;;;23.30;14.23;;;8.70;99.90;;;;;;4953760;29;20043;-66
2022/03/10 03:46:41;;;;;;;21.08;13.45;;;8.70;99.90;;;;;;4937054;29;20119;-66
2022/03/10 03:49:11;;;;;;;20.80;13.30;;;8.70;99.90;;;;;;4931214;29;20055;-66
2022/03/10 03:51:38;;;;;;;20.70;14.45;;;8.70;99.90;;;;;;4951627;29;20083;-66
2022/03/10 03:54:06;;;;;;;19.65;14.20;;;8.60;99.90;;;;;;4931483;29;20051;-66
2022/03/10 03:56:37;;;;;;;21.73;14.45;;;8.60;99.90;;;;;;4951458;28;20051;-67
2022/03/10 03:59:04;;;;;;;21.13;13.77;;;8.60;99.90;;;;;;4946925;28;20053;-67
2022/03/10 04:01:32;;;;;;;19.85;14.23;;;8.60;99.90;;;;;;4953032;29;20062;-66
2022/03/10 04:03:59;;;;;;;21.45;14.13;;;8.60;99.90;;;;;;4952708;29;20130;-67
2022/03/10 04:06:26;;;;;;;21.52;14.18;;;8.60;99.90;;;;;;4952669;29;20047;-67
2022/03/10 04:08:53;;;;;;;22.50;15.43;;;8.60;99.90;;;;;;4952316;28;20513;-66
2022/03/10 04:11:20;;;;;;;23.80;15.13;;;8.60;99.90;;;;;;4954283;28;20051;-67
2022/03/10 04:13:48;;;;;;;19.23;14.95;;;8.50;99.90;;;;;;4952359;29;20434;-67
2022/03/10 04:16:16;;;;;;;23.88;15.02;;;8.60;99.90;;;;;;4937085;29;20491;-66
2022/03/10 04:18:43;;;;;;;21.20;13.63;;;8.50;99.90;;;;;;4936452;29;20615;-66
2022/03/10 04:21:11;;;;;;;21.17;15.50;;;8.50;99.90;;;;;;4954105;28;20085;-66
2022/03/10 04:23:38;;;;;;;23.95;16.75;;;8.50;99.90;;;;;;4952728;28;20078;-66
2022/03/10 04:26:05;;;;;;;21.95;15.55;;;8.50;99.90;;;;;;4936497;29;20587;-67
2022/03/10 04:28:33;;;;;;;30.15;16.30;;;8.50;99.90;;;;;;4937187;28;20047;-66
2022/03/10 04:31:02;;;;;;;22.42;15.13;;;8.40;99.90;;;;;;4952657;29;20071;-66
2022/03/10 04:33:30;;;;;;;20.65;14.63;;;8.40;99.90;;;;;;4936415;29;20078;-66
2022/03/10 04:35:56;;;;;;;19.17;14.07;;;8.40;99.90;;;;;;4934892;29;20135;-66
2022/03/10 04:38:24;;;;;;;20.33;15.93;;;8.40;99.90;;;;;;4952906;29;20069;-66
2022/03/10 04:40:51;;;;;;;19.55;14.20;;;8.30;99.90;;;;;;4952882;29;20047;-66
2022/03/10 04:43:18;;;;;;;19.60;14.43;;;8.30;99.90;;;;;;4931685;29;20056;-66
2022/03/10 04:45:45;;;;;;;21.95;14.95;;;8.30;99.90;;;;;;4951704;29;20047;-66
2022/03/10 04:48:13;;;;;;;24.42;16.42;;;8.20;99.90;;;;;;4917477;29;20107;-67
2022/03/10 04:50:40;;;;;;;20.48;16.20;;;8.30;99.90;;;;;;4950372;29;20054;-67
2022/03/10 04:53:07;;;;;;;23.83;15.40;;;8.20;99.90;;;;;;4952450;29;20050;-67
2022/03/10 04:55:34;;;;;;;22.63;14.85;;;8.20;99.90;;;;;;4953545;28;20062;-66
2022/03/10 04:58:01;;;;;;;24.85;15.82;;;8.20;99.90;;;;;;4953578;28;20044;-67
2022/03/10 05:00:29;;;;;;;28.35;17.15;;;8.20;99.90;;;;;;4952284;28;20051;-67
2022/03/10 05:02:56;;;;;;;21.25;15.30;;;8.20;99.90;;;;;;4951917;29;20168;-66
2022/03/10 05:05:25;;;;;;;21.27;15.55;;;8.20;99.90;;;;;;4951236;29;20043;-67
2022/03/10 05:07:53;;;;;;;22.92;17.45;;;8.20;99.90;;;;;;4951925;28;20402;-66
2022/03/10 05:10:20;;;;;;;20.85;14.77;;;8.20;99.90;;;;;;4952315;29;20075;-66
2022/03/10 05:12:57;;;;;;;22.83;15.65;;;8.20;99.90;;;;;;4952084;29;20415;-67
2022/03/10 05:15:26;;;;;;;20.50;14.93;;;8.20;99.90;;;;;;4935591;29;20082;-66
2022/03/10 05:17:53;;;;;;;;;;;8.10;99.90;;;;;;4951781;28;20043;-66
2022/03/10 05:20:21;;;;;;;23.10;15.07;;;8.20;99.90;;;;;;4950932;28;19930;-66
2022/03/10 05:22:55;;;;;;;29.27;17.67;;;8.10;99.90;;;;;;4939519;29;20062;-67
2022/03/10 05:25:23;;;;;;;22.90;15.90;;;8.20;99.90;;;;;;4958359;28;20131;-67
2022/03/10 05:27:51;;;;;;;26.55;16.08;;;8.10;99.90;;;;;;4955377;28;20071;-67
2022/03/10 05:30:18;;;;;;;22.38;16.30;;;8.10;99.90;;;;;;4956069;28;20508;-67
2022/03/10 05:32:46;;;;;;;21.80;15.85;;;8.10;99.90;;;;;;4935413;29;20106;-67
2022/03/10 05:35:17;;;;;;;22.75;15.02;;;8.20;99.90;;;;;;4941373;29;20125;-66
2022/03/10 05:37:45;;;;;;;25.02;15.90;;;8.10;99.90;;;;;;4941062;29;20059;-66
2022/03/10 05:40:15;;;;;;;21.27;15.15;;;8.10;99.90;;;;;;4957216;28;20047;-67
2022/03/10 05:42:43;;;;;;;31.52;16.88;;;8.20;99.90;;;;;;4940283;29;20047;-67
2022/03/10 05:45:10;;;;;;;25.23;16.42;;;8.10;99.90;;;;;;4956933;28;20043;-67
2022/03/10 05:47:38;;;;;;;20.20;15.73;;;8.10;99.90;;;;;;4955137;29;20047;-66
2022/03/10 05:50:06;;;;;;;22.77;15.85;;;8.10;99.90;;;;;;4955362;29;20055;-67
2022/03/10 05:52:33;;;;;;;278.83;205.65;;;8.10;99.90;;;;;;4957218;28;20058;-70
2022/03/10 05:55:00;;;;;;;35.38;25.83;;;8.10;99.90;;;;;;4955050;28;20051;-67
2022/03/10 05:57:29;;;;;;;33.80;22.88;;;8.20;99.90;;;;;;4961207;28;20078;-68
2022/03/10 05:59:57;;;;;;;25.10;19.35;;;8.10;99.90;;;;;;4954995;28;20047;-68
2022/03/10 06:02:24;;;;;;;24.52;19.13;;;8.10;99.90;;;;;;4943216;29;20134;-68
2022/03/10 06:04:51;;;;;;;21.48;15.65;;;8.10;99.90;;;;;;4942075;29;20082;-67
2022/03/10 06:07:18;;;;;;;25.00;14.95;;;8.10;99.90;;;;;;4956871;28;20131;-67
2022/03/10 06:09:48;;;;;;;21.55;16.20;;;8.10;99.90;;;;;;4956559;28;20055;-67
2022/03/10 06:12:20;;;;;;;26.70;16.85;;;8.10;99.90;;;;;;4956058;28;20558;-67
2022/03/10 06:15:00;;;;;;;23.48;15.55;;;8.20;99.90;;;;;;4935751;29;20056;-67
2022/03/10 06:17:27;;;;;;;22.40;15.70;;;8.20;99.90;;;;;;4939755;29;20055;-67
2022/03/10 06:19:54;;;;;;;21.08;16.35;;;8.20;99.90;;;;;;4954891;29;20050;-67
2022/03/10 06:22:24;;;;;;;23.38;16.05;;;8.20;99.90;;;;;;4956623;28;20126;-67
2022/03/10 06:24:51;;;;;;;19.67;15.07;;;8.30;99.90;;;;;;4956333;28;20130;-68
2022/03/10 06:27:18;;;;;;;22.42;15.98;;;8.30;99.90;;;;;;4954160;28;20049;-69
2022/03/10 06:29:46;;;;;;;20.65;16.45;;;8.30;99.90;;;;;;4938240;29;20055;-67
2022/03/10 06:32:16;;;;;;;25.42;17.02;;;8.40;99.90;;;;;;4954372;28;20047;-67
2022/03/10 06:34:43;;;;;;;22.90;16.05;;;8.50;99.90;;;;;;4938619;29;20217;-67
2022/03/10 06:37:10;;;;;;;24.83;16.83;;;8.40;99.90;;;;;;4927282;29;20094;-67
2022/03/10 06:39:37;;;;;;;22.80;16.55;;;8.50;99.90;;;;;;4950826;29;20039;-67
2022/03/10 06:42:05;;;;;;;20.80;15.52;;;8.50;99.90;;;;;;4938284;29;20158;-68
2022/03/10 06:44:33;;;;;;;29.60;23.65;;;8.60;99.90;;;;;;4953903;29;20491;-70
2022/03/10 06:47:00;;;;;;;79.57;59.83;;;8.60;99.90;;;;;;4951873;29;20047;-68
2022/03/10 06:49:27;;;;;;;26.77;18.65;;;8.60;99.90;;;;;;4951689;29;20138;-68
2022/03/10 06:51:54;;;;;;;27.30;17.58;;;8.70;99.90;;;;;;4952121;29;20055;-68
2022/03/10 06:54:21;;;;;;;23.63;16.88;;;8.70;99.90;;;;;;4950272;29;20209;-68
2022/03/10 06:56:48;;;;;;;22.42;15.93;;;8.70;99.90;;;;;;4952426;28;20347;-68
2022/03/10 06:59:17;;;;;;;24.83;16.17;;;8.70;99.90;;;;;;4952599;29;20512;-69
2022/03/10 07:01:44;;;;;;;19.30;15.40;;;8.70;99.90;;;;;;4952429;29;20047;-68
2022/03/10 07:04:15;;;;;;;25.58;15.57;;;8.70;99.90;;;;;;4951964;29;20102;-69
2022/03/10 07:06:43;;;;;;;23.70;16.80;;;8.70;99.90;;;;;;4952891;29;20385;-70
2022/03/10 07:09:10;;;;;;;28.02;18.42;;;8.70;99.90;;;;;;4953484;29;20055;-69
2022/03/10 07:11:37;;;;;;;26.30;17.77;;;8.70;99.90;;;;;;4953473;29;20440;-67
2022/03/10 07:14:05;;;;;;;49.17;30.52;;;8.70;99.90;;;;;;4951884;29;20483;-69
2022/03/10 07:16:32;;;;;;;175.75;134.35;;;8.80;99.90;;;;;;4951775;29;20133;-69
2022/03/10 07:18:59;;;;;;;31.50;22.85;;;8.90;99.90;;;;;;4952080;29;20121;-68
2022/03/10 07:21:26;;;;;;;26.42;19.60;;;8.90;99.90;;;;;;4951622;29;20491;-68
2022/03/10 07:23:57;;;;;;;25.65;19.27;;;8.90;99.90;;;;;;4953240;28;20054;-70
2022/03/10 07:26:24;;;;;;;27.90;20.40;;;8.80;99.90;;;;;;4941170;29;20051;-74
2022/03/10 07:28:51;;;;;;;29.42;20.05;;;8.80;99.90;;;;;;4951799;29;20086;-70
2022/03/10 07:31:18;;;;;;;25.42;19.60;;;8.90;99.90;;;;;;4951796;28;20047;-71
2022/03/10 07:33:45;;;;;;;26.27;18.88;;;8.90;99.90;;;;;;4966000;28;20059;-72
2022/03/10 07:36:17;;;;;;;24.63;16.85;;;9.00;99.90;;;;;;4937647;29;20051;-71
2022/03/10 07:38:44;;;;;;;25.23;17.77;;;9.10;99.90;;;;;;4952140;29;20055;-75
2022/03/10 07:41:11;;;;;;;28.48;20.20;;;9.10;99.90;;;;;;4953362;28;20090;-71
2022/03/10 07:43:38;;;;;;;25.15;18.02;;;9.20;99.90;;;;;;4950981;28;20081;-71
2022/03/10 07:46:06;;;;;;;25.02;19.85;;;9.30;99.90;;;;;;4952988;28;20051;-70
2022/03/10 07:48:34;;;;;;;23.83;17.88;;;9.40;99.90;;;;;;4956879;28;20165;-72
2022/03/10 07:51:01;;;;;;;24.52;18.98;;;9.50;99.90;;;;;;4954353;28;20051;-72
2022/03/10 07:53:29;;;;;;;21.98;17.05;;;9.50;99.90;;;;;;4951666;28;20134;-71
2022/03/10 07:55:56;;;;;;;27.40;19.08;;;9.60;99.90;;;;;;4956330;28;20054;-75
2022/03/10 07:58:25;;;;;;;25.73;19.85;;;9.70;99.90;;;;;;4948093;29;20209;-74
2022/03/10 08:00:57;;;;;;;91.43;58.83;;;9.70;99.90;;;;;;4948455;28;20051;-68
2022/03/10 08:03:27;;;;;;;27.40;22.02;;;9.80;99.90;;;;;;4951761;28;20097;-68
2022/03/10 08:05:55;;;;;;;29.33;19.73;;;9.80;99.90;;;;;;4958283;28;20223;-67
2022/03/10 08:08:22;;;;;;;25.75;18.90;;;9.80;99.90;;;;;;4950827;28;20407;-68
2022/03/10 08:10:49;;;;;;;23.90;18.15;;;9.80;99.90;;;;;;4950084;28;20558;-68
2022/03/10 08:13:16;;;;;;;26.98;18.70;;;9.80;99.90;;;;;;4951511;29;20056;-73
2022/03/10 08:15:43;;;;;;;27.00;19.08;;;9.90;99.90;;;;;;4950655;29;20039;-69
2022/03/10 08:18:11;;;;;;;28.33;19.23;;;10.00;99.90;;;;;;4950749;28;20517;-71
2022/03/10 08:20:39;;;;;;;25.75;20.02;;;10.00;99.90;;;;;;4920216;29;20399;-69
2022/03/10 08:23:10;;;;;;;35.47;24.02;;;10.10;99.90;;;;;;4948022;28;20055;-69
2022/03/10 08:25:37;;;;;;;28.15;19.73;;;10.20;99.90;;;;;;4952880;28;20053;-69
2022/03/10 08:28:05;;;;;;;27.52;19.17;;;10.30;99.90;;;;;;4938035;29;20146;-71
2022/03/10 08:30:32;;;;;;;23.40;18.83;;;10.40;99.90;;;;;;4950417;28;20049;-71
2022/03/10 08:32:59;;;;;;;26.20;18.50;;;10.40;99.90;;;;;;4952336;28;20278;-70
2022/03/10 08:35:26;;;;;;;23.33;17.90;;;10.60;99.90;;;;;;4962380;28;20043;-71
2022/03/10 08:37:53;;;;;;;26.05;17.27;;;10.60;99.90;;;;;;4966231;28;20065;-70
2022/03/10 08:40:21;;;;;;;24.85;17.58;;;10.70;99.90;;;;;;4951041;29;20054;-71
2022/03/10 08:42:50;;;;;;;23.98;16.27;;;10.80;99.90;;;;;;4933531;29;20051;-68
2022/03/10 08:45:17;;;;;;;28.08;17.25;;;10.90;99.70;;;;;;4934990;29;20085;-69
2022/03/10 08:47:44;;;;;;;24.02;17.58;;;11.00;98.90;;;;;;4948989;29;20047;-72
2022/03/10 08:50:18;;;;;;;38.47;31.38;;;11.00;98.50;;;;;;4950698;29;20486;-70
2022/03/10 08:52:45;;;;;;;26.98;21.08;;;11.10;98.40;;;;;;4934304;29;20399;-69
2022/03/10 08:55:12;;;;;;;24.27;17.67;;;11.20;98.60;;;;;;4944927;28;20043;-71
2022/03/10 08:57:39;;;;;;;28.13;17.08;;;11.30;97.80;;;;;;4967796;28;20055;-71
2022/03/10 09:00:08;;;;;;;22.02;17.00;;;11.40;97.10;;;;;;4915202;29;20083;-71
2022/03/10 09:02:35;;;;;;;22.40;16.75;;;11.50;96.60;;;;;;4933781;29;20060;-72
2022/03/10 09:05:04;;;;;;;19.70;15.48;;;11.70;96.40;;;;;;4933841;29;20063;-71
2022/03/10 09:07:31;;;;;;;20.92;14.65;;;11.80;95.70;;;;;;4934886;29;20052;-72
2022/03/10 09:09:59;;;;;;;21.65;13.82;;;11.90;95.60;;;;;;4933791;29;20089;-72
2022/03/10 09:12:28;;;;;;;14.80;12.48;;;11.90;95.00;;;;;;4949487;28;20388;-71
2022/03/10 09:14:55;;;;;;;19.95;13.45;;;11.90;95.00;;;;;;4952916;29;20134;-71
2022/03/10 09:17:24;;;;;;;20.00;12.05;;;11.90;94.50;;;;;;4952682;29;20398;-71
2022/03/10 09:19:51;;;;;;;18.23;13.27;;;11.90;94.60;;;;;;4953492;28;20054;-71
2022/03/10 09:22:20;;;;;;;17.40;12.63;;;12.00;94.60;;;;;;4937095;29;20050;-71
2022/03/10 09:24:47;;;;;;;16.77;12.90;;;12.20;94.60;;;;;;4953157;28;20133;-72
2022/03/10 09:27:14;;;;;;;15.80;10.80;;;12.30;94.20;;;;;;4970385;28;20082;-71
2022/03/10 09:29:41;;;;;;;17.58;12.10;;;12.40;93.40;;;;;;4959502;28;20051;-71
2022/03/10 09:32:08;;;;;;;14.35;12.55;;;12.50;93.20;;;;;;4953591;28;20142;-72
2022/03/10 09:34:35;;;;;;;15.20;12.50;;;12.50;92.50;;;;;;4951988;29;20106;-71
2022/03/10 09:37:04;;;;;;;15.02;10.77;;;12.50;92.80;;;;;;4936730;29;20055;-71
2022/03/10 09:39:34;;;;;;;13.77;10.90;;;12.50;92.80;;;;;;4952303;29;20051;-71
2022/03/10 09:42:04;;;;;;;15.03;10.77;;;12.60;92.40;;;;;;4953773;28;20483;-71
2022/03/10 09:44:35;;;;;;;15.73;11.90;;;12.60;92.20;;;;;;4937703;29;20051;-71
2022/03/10 09:47:03;;;;;;;14.48;11.75;;;12.70;92.20;;;;;;4952167;29;20051;-71
2022/03/10 09:49:34;;;;;;;15.75;11.10;;;12.70;92.40;;;;;;4952015;29;20094;-71
2022/03/10 09:52:01;;;;;;;16.10;12.43;;;12.90;92.20;;;;;;4920791;29;20059;-71
2022/03/10 09:54:30;;;;;;;16.50;10.93;;;13.00;91.90;;;;;;4953774;28;20055;-71
2022/03/10 09:56:57;;;;;;;14.18;10.88;;;13.00;91.50;;;;;;4966499;28;20049;-72
2022/03/10 09:59:27;;;;;;;15.05;11.55;;;13.10;91.40;;;;;;4962785;28;20051;-72
2022/03/10 10:01:55;;;;;;;15.45;11.85;;;13.10;91.40;;;;;;4953486;28;20058;-72
2022/03/10 10:04:23;;;;;;;15.60;11.90;;;13.20;91.00;;;;;;4951876;29;20084;-71
2022/03/10 10:07:06;;;;;;;16.10;11.77;;;13.10;91.00;;;;;;4937392;29;20055;-71
2022/03/10 10:09:56;;;;;;;15.23;11.15;;;13.20;91.00;;;;;;4955891;29;20043;-72
2022/03/10 10:12:27;;;;;;;13.68;10.90;;;13.30;90.20;;;;;;4924962;29;20463;-72
2022/03/10 10:14:55;;;;;;;17.63;12.35;;;13.30;90.60;;;;;;4955599;29;20106;-71
2022/03/10 10:17:31;;;;;;;19.65;11.93;;;13.30;91.10;;;;;;4955409;29;20087;-71
2022/03/10 10:20:20;;;;;;;16.55;12.32;;;13.30;90.30;;;;;;4954690;29;20047;-71
2022/03/10 10:22:48;;;;;;;15.20;11.55;;;13.40;90.80;;;;;;4939874;29;20130;-72
2022/03/10 10:25:20;;;;;;;17.83;11.82;;;13.50;90.60;;;;;;4957232;28;20055;-74
2022/03/10 10:27:47;;;;;;;14.10;11.40;;;13.50;90.40;;;;;;4974491;28;20475;-72
2022/03/10 10:30:15;;;;;;;13.73;11.70;;;13.60;90.30;;;;;;4957267;28;20478;-72
2022/03/10 10:32:42;;;;;;;17.73;11.63;;;13.70;90.10;;;;;;4956241;28;20059;-69
2022/03/10 10:35:11;;;;;;;20.92;10.95;;;13.70;89.90;;;;;;4955588;28;20122;-68
2022/03/10 10:37:39;;;;;;;14.82;11.48;;;13.60;89.60;;;;;;4941714;28;20047;-68
2022/03/10 10:40:08;;;;;;;18.95;11.30;;;13.60;90.00;;;;;;4965991;28;20543;-68
2022/03/10 10:42:38;;;;;;;15.82;11.43;;;13.60;90.10;;;;;;4959431;28;20105;-69
2022/03/10 10:45:30;;;;;;;14.02;9.82;;;13.60;90.00;;;;;;4964496;28;20081;-68
2022/03/10 10:48:08;;;;;;;13.98;9.75;;;13.50;89.90;;;;;;4946468;29;20049;-68
2022/03/10 10:50:40;;;;;;;10.80;8.85;;;13.50;90.20;;;;;;4956479;28;20475;-68
2022/03/10 10:53:28;;;;;;;10.52;8.23;;;13.60;89.70;;;;;;4938241;29;20059;-68
2022/03/10 10:56:01;;;;;;;12.55;8.98;;;13.60;90.00;;;;;;4962520;28;20082;-68
2022/03/10 10:58:28;;;;;;;64.18;52.55;;;13.70;89.90;;;;;;4973680;28;20081;-68
2022/03/10 11:00:57;;;;;;;23.10;16.23;;;13.80;90.80;;;;;;4957109;28;20103;-69
2022/03/10 11:03:26;;;;;;;17.40;12.95;;;14.00;89.70;;;;;;4963447;28;20114;-70
2022/03/10 11:05:54;;;;;;;17.95;12.30;;;14.20;89.90;;;;;;4963142;28;20090;-70
2022/03/10 11:08:22;;;;;;;10.18;8.05;;;14.30;88.50;;;;;;4958561;28;20055;-70
2022/03/10 11:10:50;;;;;;;11.18;8.57;;;14.30;88.70;;;;;;4956386;28;20062;-69
2022/03/10 11:13:21;;;;;;;11.38;7.20;;;14.30;88.70;;;;;;4955455;28;20051;-71
2022/03/10 11:15:48;;;;;;;10.95;6.60;;;14.20;89.20;;;;;;4938345;29;20452;-70
2022/03/10 11:18:18;;;;;;;9.07;6.00;;;14.20;87.70;;;;;;4953184;28;20463;-70
2022/03/10 11:20:47;;;;;;;8.60;6.05;;;14.20;88.30;;;;;;4938627;29;20299;-70
2022/03/10 11:23:39;;;;;;;11.07;5.95;;;14.10;88.80;;;;;;4954046;29;20508;-70
2022/03/10 11:26:14;;;;;;;7.38;6.18;;;14.10;88.10;;;;;;4958841;28;20055;-71
2022/03/10 11:28:43;;;;;;;12.07;5.82;;;14.20;88.80;;;;;;4937620;28;20062;-70
2022/03/10 11:31:10;;;;;;;8.23;5.82;;;14.20;87.00;;;;;;4932872;29;20058;-70
2022/03/10 11:33:38;;;;;;;9.63;5.35;;;14.10;87.70;;;;;;4919262;29;20495;-70
2022/03/10 11:36:26;;;;;;;13.30;8.60;;;14.20;87.50;;;;;;4953169;29;20051;-70
2022/03/10 11:38:53;;;;;;;12.77;7.65;;;14.20;87.90;;;;;;4916977;29;20463;-70
2022/03/10 11:41:24;;;;;;;9.55;6.15;;;14.10;88.10;;;;;;4949990;29;20122;-71
2022/03/10 11:43:59;;;;;;;8.82;6.80;;;14.20;88.40;;;;;;4952942;28;20079;-69
2022/03/10 11:46:30;;;;;;;8.88;5.55;;;14.20;87.70;;;;;;4923250;29;20075;-68
2022/03/10 11:49:14;;;;;;;14.38;6.75;;;14.20;87.90;;;;;;4952192;29;20078;-74
2022/03/10 11:51:44;;;;;;;9.10;5.28;;;14.20;88.10;;;;;;4935572;28;20173;-73
2022/03/10 11:54:32;;;;;;;10.93;6.90;;;14.20;87.30;;;;;;4939885;29;20093;-70
2022/03/10 11:57:01;;;;;;;9.35;5.40;;;14.20;87.20;;;;;;4965669;28;20574;-74
2022/03/10 11:59:43;;;;;;;10.13;7.05;;;14.20;87.60;;;;;;4918007;29;20566;-73
2022/03/10 12:02:43;;;;;;;12.82;8.57;;;14.20;87.60;;;;;;4950466;29;20051;-75
2022/03/10 12:05:11;;;;;;;9.93;7.32;;;14.20;87.40;;;;;;4952665;29;20407;-73
2022/03/10 12:07:42;;;;;;;12.10;7.43;;;14.30;87.40;;;;;;4931721;29;20116;-72
2022/03/10 12:10:11;;;;;;;10.77;7.43;;;14.30;88.50;;;;;;4918681;29;20055;-71
2022/03/10 12:12:40;;;;;;;8.40;5.22;;;14.40;87.90;;;;;;4952013;28;20051;-72
2022/03/10 12:15:29;;;;;;;8.57;4.72;;;14.40;87.70;;;;;;4920280;29;20048;-70
2022/03/10 12:17:57;;;;;;;13.77;5.57;;;14.50;87.10;;;;;;4948246;29;20066;-73
2022/03/10 12:20:45;;;;;;;7.40;4.68;;;14.70;86.50;;;;;;4953177;28;20057;-72
2022/03/10 12:23:15;;;;;;;10.30;5.47;;;14.80;85.30;;;;;;4948352;28;20138;-71
2022/03/10 12:25:50;;;;;;;17.52;5.72;;;15.00;85.70;;;;;;4940925;28;20057;-72
2022/03/10 12:28:25;;;;;;;8.35;5.35;;;15.00;85.70;;;;;;4961385;28;20051;-71
2022/03/10 12:31:20;;;;;;;6.97;5.65;;;15.10;85.00;;;;;;4947600;28;20051;-72
2022/03/10 12:33:49;;;;;;;6.85;5.43;;;15.30;84.30;;;;;;4951431;29;20483;-72
2022/03/10 12:36:29;;;;;;;8.25;5.88;;;15.30;84.80;;;;;;4951763;29;20051;-71
2022/03/10 12:38:58;;;;;;;8.73;5.18;;;15.20;83.90;;;;;;4952977;29;20055;-73
2022/03/10 12:41:33;;;;;;;11.23;6.15;;;15.20;84.10;;;;;;4952153;28;20070;-71
2022/03/10 12:44:02;;;;;;;8.27;5.65;;;15.30;84.50;;;;;;4926069;29;20510;-72
2022/03/10 12:46:29;;;;;;;8.93;5.28;;;15.20;84.50;;;;;;4902769;29;20081;-72
2022/03/10 12:49:02;;;;;;;9.57;5.20;;;15.20;84.10;;;;;;4941071;29;20117;-77
2022/03/10 12:51:30;;;;;;;61.97;42.55;;;15.20;85.20;;;;;;4931334;28;20047;-76
2022/03/10 12:53:58;;;;;;;10.98;9.27;;;15.30;85.20;;;;;;4951750;29;20082;-75